sensor_id;sensor_type;location;lat;lon;timestamp;temperature;humidity
35970;DHT22;22448;51.298;6.430;2023-01-05T00:01:45;11.00;99.90
35970;DHT22;22448;51.298;6.430;2023-01-05T00:04:13;11.00;99.90
35970;DHT22;22448;51.298;6.430;2023-01-05T00:06:41;11.00;99.90
35970;DHT22;22448;51.298;6.430;2023-01-05T00:09:11;11.00;99.90
35970;DHT22;22448;51.298;6.430;2023-01-05T00:11:38;11.00;99.90
35970;DHT22;22448;51.298;6.430;2023-01-05T00:14:27;11.00;99.90
35970;DHT22;22448;51.298;6.430;2023-01-05T00:17:21;11.00;99.90
35970;DHT22;22448;51.298;6.430;2023-01-05T00:20:13;11.00;99.90
35970;DHT22;22448;51.298;6.430;2023-01-05T00:22:59;11.00;99.90
35970;DHT22;22448;51.298;6.430;2023-01-05T00:25:29;10.90;99.90
35970;DHT22;22448;51.298;6.430;2023-01-05T00:27:56;10.90;99.90
35970;DHT22;22448;51.298;6.430;2023-01-05T00:30:37;10.90;99.90
35970;DHT22;22448;51.298;6.430;2023-01-05T00:33:09;10.90;99.90
35970;DHT22;22448;51.298;6.430;2023-01-05T00:35:36;10.90;99.90
35970;DHT22;22448;51.298;6.430;2023-01-05T00:38:05;10.80;99.90
35970;DHT22;22448;51.298;6.430;2023-01-05T00:40:34;10.80;99.90
35970;DHT22;22448;51.298;6.430;2023-01-05T00:43:01;10.80;99.90
35970;DHT22;22448;51.298;6.430;2023-01-05T00:45:28;10.80;99.90
35970;DHT22;22448;51.298;6.430;2023-01-05T00:47:55;10.80;99.90
35970;DHT22;22448;51.298;6.430;2023-01-05T00:50:23;10.80;99.90
35970;DHT22;22448;51.298;6.430;2023-01-05T00:52:50;10.80;99.90
35970;DHT22;22448;51.298;6.430;2023-01-05T00:55:17;10.80;99.90
35970;DHT22;22448;51.298;6.430;2023-01-05T00:57:44;10.80;99.90
35970;DHT22;22448;51.298;6.430;2023-01-05T01:00:17;10.80;99.90
35970;DHT22;22448;51.298;6.430;2023-01-05T01:02:45;10.80;99.90
35970;DHT22;22448;51.298;6.430;2023-01-05T01:05:13;10.80;99.90
35970;DHT22;22448;51.298;6.430;2023-01-05T01:07:40;10.80;99.90
35970;DHT22;22448;51.298;6.430;2023-01-05T01:10:08;10.80;99.90
35970;DHT22;22448;51.298;6.430;2023-01-05T01:12:36;10.70;99.90
35970;DHT22;22448;51.298;6.430;2023-01-05T01:15:04;10.70;99.90
35970;DHT22;22448;51.298;6.430;2023-01-05T01:17:31;10.70;99.90
35970;DHT22;22448;51.298;6.430;2023-01-05T01:19:59;10.70;99.90
35970;DHT22;22448;51.298;6.430;2023-01-05T01:22:26;10.60;99.90
35970;DHT22;22448;51.298;6.430;2023-01-05T01:24:53;10.60;99.90
35970;DHT22;22448;51.298;6.430;2023-01-05T01:27:20;10.60;99.90
35970;DHT22;22448;51.298;6.430;2023-01-05T01:29:47;10.60;99.90
35970;DHT22;22448;51.298;6.430;2023-01-05T01:32:14;10.50;99.90
35970;DHT22;22448;51.298;6.430;2023-01-05T01:34:41;10.50;99.90
35970;DHT22;22448;51.298;6.430;2023-01-05T01:37:11;10.50;99.90
35970;DHT22;22448;51.298;6.430;2023-01-05T01:39:44;10.50;99.90
35970;DHT22;22448;51.298;6.430;2023-01-05T01:42:14;10.50;99.90
35970;DHT22;22448;51.298;6.430;2023-01-05T01:44:47;10.50;99.90
35970;DHT22;22448;51.298;6.430;2023-01-05T01:49:47;10.40;99.90
35970;DHT22;22448;51.298;6.430;2023-01-05T01:52:15;10.40;99.90
35970;DHT22;22448;51.298;6.430;2023-01-05T01:54:42;10.50;99.90
35970;DHT22;22448;51.298;6.430;2023-01-05T01:57:12;10.50;99.90
35970;DHT22;22448;51.298;6.430;2023-01-05T01:59:40;10.50;99.90
35970;DHT22;22448;51.298;6.430;2023-01-05T02:02:07;10.50;99.90
35970;DHT22;22448;51.298;6.430;2023-01-05T02:04:36;10.50;99.90
35970;DHT22;22448;51.298;6.430;2023-01-05T02:07:04;10.50;99.90
35970;DHT22;22448;51.298;6.430;2023-01-05T02:09:33;10.50;99.90
35970;DHT22;22448;51.298;6.430;2023-01-05T02:20:41;10.40;99.90
35970;DHT22;22448;51.298;6.430;2023-01-05T02:23:30;10.50;99.90
35970;DHT22;22448;51.298;6.430;2023-01-05T02:29:15;10.40;99.90
35970;DHT22;22448;51.298;6.430;2023-01-05T02:34:51;10.40;99.90
35970;DHT22;22448;51.298;6.430;2023-01-05T02:37:47;10.30;99.90
35970;DHT22;22448;51.298;6.430;2023-01-05T02:40:25;10.30;99.90
35970;DHT22;22448;51.298;6.430;2023-01-05T02:42:57;10.20;99.90
35970;DHT22;22448;51.298;6.430;2023-01-05T02:45:25;10.20;99.90
35970;DHT22;22448;51.298;6.430;2023-01-05T02:47:57;10.20;99.90
35970;DHT22;22448;51.298;6.430;2023-01-05T02:53:03;10.20;99.90
35970;DHT22;22448;51.298;6.430;2023-01-05T02:55:36;10.30;99.90
35970;DHT22;22448;51.298;6.430;2023-01-05T02:58:06;10.30;99.90
35970;DHT22;22448;51.298;6.430;2023-01-05T03:00:53;10.30;99.90
35970;DHT22;22448;51.298;6.430;2023-01-05T03:05:58;10.30;99.90
35970;DHT22;22448;51.298;6.430;2023-01-05T03:08:29;10.30;99.90
35970;DHT22;22448;51.298;6.430;2023-01-05T03:11:05;10.20;99.90
35970;DHT22;22448;51.298;6.430;2023-01-05T03:16:37;10.20;99.90
35970;DHT22;22448;51.298;6.430;2023-01-05T03:19:10;10.20;99.90
35970;DHT22;22448;51.298;6.430;2023-01-05T03:21:58;10.20;99.90
35970;DHT22;22448;51.298;6.430;2023-01-05T03:24:46;10.20;99.90
35970;DHT22;22448;51.298;6.430;2023-01-05T03:27:36;10.30;99.90
35970;DHT22;22448;51.298;6.430;2023-01-05T03:30:31;10.20;99.90
35970;DHT22;22448;51.298;6.430;2023-01-05T03:34:16;10.30;99.90
35970;DHT22;22448;51.298;6.430;2023-01-05T03:36:43;10.30;99.90
35970;DHT22;22448;51.298;6.430;2023-01-05T03:39:13;10.30;99.90
35970;DHT22;22448;51.298;6.430;2023-01-05T03:41:45;10.30;99.90
35970;DHT22;22448;51.298;6.430;2023-01-05T03:44:13;10.30;99.90
35970;DHT22;22448;51.298;6.430;2023-01-05T03:46:42;10.30;99.90
35970;DHT22;22448;51.298;6.430;2023-01-05T03:49:09;10.30;99.90
35970;DHT22;22448;51.298;6.430;2023-01-05T03:51:36;10.30;99.90
35970;DHT22;22448;51.298;6.430;2023-01-05T03:54:09;10.30;99.90
35970;DHT22;22448;51.298;6.430;2023-01-05T03:56:37;10.30;99.90
35970;DHT22;22448;51.298;6.430;2023-01-05T03:59:05;10.30;99.90
35970;DHT22;22448;51.298;6.430;2023-01-05T04:01:34;10.20;99.90
35970;DHT22;22448;51.298;6.430;2023-01-05T04:04:02;10.20;99.90
35970;DHT22;22448;51.298;6.430;2023-01-05T04:06:29;10.10;99.90
35970;DHT22;22448;51.298;6.430;2023-01-05T04:08:57;10.00;99.90
35970;DHT22;22448;51.298;6.430;2023-01-05T04:11:24;10.00;99.90
35970;DHT22;22448;51.298;6.430;2023-01-05T04:13:56;10.00;99.90
35970;DHT22;22448;51.298;6.430;2023-01-05T04:16:23;10.00;99.90
35970;DHT22;22448;51.298;6.430;2023-01-05T04:18:54;10.00;99.90
35970;DHT22;22448;51.298;6.430;2023-01-05T04:21:22;10.00;99.90
35970;DHT22;22448;51.298;6.430;2023-01-05T04:23:52;9.90;99.90
35970;DHT22;22448;51.298;6.430;2023-01-05T04:26:19;10.00;99.90
35970;DHT22;22448;51.298;6.430;2023-01-05T04:28:48;10.00;99.90
35970;DHT22;22448;51.298;6.430;2023-01-05T04:31:18;10.00;99.90
35970;DHT22;22448;51.298;6.430;2023-01-05T04:33:46;10.00;99.90
35970;DHT22;22448;51.298;6.430;2023-01-05T04:36:17;10.00;99.90
35970;DHT22;22448;51.298;6.430;2023-01-05T04:38:44;10.00;99.90
35970;DHT22;22448;51.298;6.430;2023-01-05T04:41:12;10.00;99.90
35970;DHT22;22448;51.298;6.430;2023-01-05T04:43:41;9.90;99.90
35970;DHT22;22448;51.298;6.430;2023-01-05T04:46:08;9.90;99.90
35970;DHT22;22448;51.298;6.430;2023-01-05T04:48:36;9.90;99.90
35970;DHT22;22448;51.298;6.430;2023-01-05T04:51:04;9.90;99.90
35970;DHT22;22448;51.298;6.430;2023-01-05T04:53:34;9.90;99.90
35970;DHT22;22448;51.298;6.430;2023-01-05T04:56:02;9.90;99.90
35970;DHT22;22448;51.298;6.430;2023-01-05T04:58:34;9.90;99.90
35970;DHT22;22448;51.298;6.430;2023-01-05T05:01:01;9.90;99.90
35970;DHT22;22448;51.298;6.430;2023-01-05T05:03:31;9.90;99.90
35970;DHT22;22448;51.298;6.430;2023-01-05T05:06:01;9.90;99.90
35970;DHT22;22448;51.298;6.430;2023-01-05T05:08:29;9.90;99.90
35970;DHT22;22448;51.298;6.430;2023-01-05T05:10:58;9.80;99.90
35970;DHT22;22448;51.298;6.430;2023-01-05T05:13:28;9.80;99.90
35970;DHT22;22448;51.298;6.430;2023-01-05T05:15:58;9.80;99.90
35970;DHT22;22448;51.298;6.430;2023-01-05T05:18:27;9.80;99.90
35970;DHT22;22448;51.298;6.430;2023-01-05T05:20:54;9.80;99.90
35970;DHT22;22448;51.298;6.430;2023-01-05T05:23:26;9.70;99.90
35970;DHT22;22448;51.298;6.430;2023-01-05T05:25:53;9.80;99.90
35970;DHT22;22448;51.298;6.430;2023-01-05T05:28:22;9.70;99.90
35970;DHT22;22448;51.298;6.430;2023-01-05T05:30:54;9.70;99.90
35970;DHT22;22448;51.298;6.430;2023-01-05T05:33:25;9.70;99.90
35970;DHT22;22448;51.298;6.430;2023-01-05T05:35:52;9.70;99.90
35970;DHT22;22448;51.298;6.430;2023-01-05T05:38:19;9.70;99.90
35970;DHT22;22448;51.298;6.430;2023-01-05T05:40:49;9.80;99.90
35970;DHT22;22448;51.298;6.430;2023-01-05T05:43:16;9.70;99.90
35970;DHT22;22448;51.298;6.430;2023-01-05T05:45:43;9.70;99.90
35970;DHT22;22448;51.298;6.430;2023-01-05T05:48:16;9.70;99.90
35970;DHT22;22448;51.298;6.430;2023-01-05T05:50:43;9.70;99.90
35970;DHT22;22448;51.298;6.430;2023-01-05T05:53:11;9.70;99.90
35970;DHT22;22448;51.298;6.430;2023-01-05T05:55:38;9.70;99.90
35970;DHT22;22448;51.298;6.430;2023-01-05T05:58:05;9.70;99.90
35970;DHT22;22448;51.298;6.430;2023-01-05T06:00:32;9.70;99.90
35970;DHT22;22448;51.298;6.430;2023-01-05T06:02:59;9.60;99.90
35970;DHT22;22448;51.298;6.430;2023-01-05T06:05:26;9.70;99.90
35970;DHT22;22448;51.298;6.430;2023-01-05T06:07:53;9.70;99.90
35970;DHT22;22448;51.298;6.430;2023-01-05T06:10:20;9.60;99.90
35970;DHT22;22448;51.298;6.430;2023-01-05T06:12:47;9.60;99.90
35970;DHT22;22448;51.298;6.430;2023-01-05T06:15:14;9.60;99.90
35970;DHT22;22448;51.298;6.430;2023-01-05T06:17:41;9.60;99.90
35970;DHT22;22448;51.298;6.430;2023-01-05T06:20:09;9.60;99.90
35970;DHT22;22448;51.298;6.430;2023-01-05T06:22:36;9.60;99.90
35970;DHT22;22448;51.298;6.430;2023-01-05T06:25:04;9.60;99.90
35970;DHT22;22448;51.298;6.430;2023-01-05T06:27:31;9.50;99.90
35970;DHT22;22448;51.298;6.430;2023-01-05T06:29:58;9.50;99.90
35970;DHT22;22448;51.298;6.430;2023-01-05T06:32:25;9.50;99.90
35970;DHT22;22448;51.298;6.430;2023-01-05T06:34:52;9.50;99.90
35970;DHT22;22448;51.298;6.430;2023-01-05T06:37:19;9.50;99.90
35970;DHT22;22448;51.298;6.430;2023-01-05T06:39:46;9.40;99.90
35970;DHT22;22448;51.298;6.430;2023-01-05T06:42:13;9.40;99.90
35970;DHT22;22448;51.298;6.430;2023-01-05T06:44:43;9.50;99.90
35970;DHT22;22448;51.298;6.430;2023-01-05T06:47:10;9.50;99.90
35970;DHT22;22448;51.298;6.430;2023-01-05T06:49:37;9.50;99.90
35970;DHT22;22448;51.298;6.430;2023-01-05T06:52:04;9.60;99.90
35970;DHT22;22448;51.298;6.430;2023-01-05T06:54:37;9.60;99.90
35970;DHT22;22448;51.298;6.430;2023-01-05T06:57:04;9.60;99.90
35970;DHT22;22448;51.298;6.430;2023-01-05T06:59:32;9.60;99.90
35970;DHT22;22448;51.298;6.430;2023-01-05T07:01:59;9.60;99.90
35970;DHT22;22448;51.298;6.430;2023-01-05T07:04:26;9.60;99.90
35970;DHT22;22448;51.298;6.430;2023-01-05T07:06:54;9.70;99.90
35970;DHT22;22448;51.298;6.430;2023-01-05T07:09:21;9.70;99.90
35970;DHT22;22448;51.298;6.430;2023-01-05T07:11:48;9.70;99.90
35970;DHT22;22448;51.298;6.430;2023-01-05T07:14:15;9.70;99.90
35970;DHT22;22448;51.298;6.430;2023-01-05T07:16:42;9.70;99.90
35970;DHT22;22448;51.298;6.430;2023-01-05T07:19:09;9.70;99.90
35970;DHT22;22448;51.298;6.430;2023-01-05T07:21:36;9.70;99.90
35970;DHT22;22448;51.298;6.430;2023-01-05T07:24:03;9.70;99.90
35970;DHT22;22448;51.298;6.430;2023-01-05T07:26:30;9.70;99.90
35970;DHT22;22448;51.298;6.430;2023-01-05T07:28:57;9.70;99.90
35970;DHT22;22448;51.298;6.430;2023-01-05T07:31:24;9.70;99.90
35970;DHT22;22448;51.298;6.430;2023-01-05T07:33:52;9.70;99.90
35970;DHT22;22448;51.298;6.430;2023-01-05T07:36:19;9.70;99.90
35970;DHT22;22448;51.298;6.430;2023-01-05T07:38:46;9.70;99.90
35970;DHT22;22448;51.298;6.430;2023-01-05T07:41:13;9.70;99.90
35970;DHT22;22448;51.298;6.430;2023-01-05T07:43:40;9.70;99.90
35970;DHT22;22448;51.298;6.430;2023-01-05T07:46:07;9.70;99.90
35970;DHT22;22448;51.298;6.430;2023-01-05T07:48:34;9.60;99.90
35970;DHT22;22448;51.298;6.430;2023-01-05T07:51:03;9.60;99.90
35970;DHT22;22448;51.298;6.430;2023-01-05T07:53:32;9.60;99.90
35970;DHT22;22448;51.298;6.430;2023-01-05T07:56:10;9.50;99.90
35970;DHT22;22448;51.298;6.430;2023-01-05T07:58:37;9.50;99.90
35970;DHT22;22448;51.298;6.430;2023-01-05T08:01:14;9.40;99.90
35970;DHT22;22448;51.298;6.430;2023-01-05T08:03:44;9.40;99.90
35970;DHT22;22448;51.298;6.430;2023-01-05T08:06:14;9.40;99.90
35970;DHT22;22448;51.298;6.430;2023-01-05T08:08:41;9.50;99.90
35970;DHT22;22448;51.298;6.430;2023-01-05T08:11:10;9.40;99.90
35970;DHT22;22448;51.298;6.430;2023-01-05T08:13:37;9.40;99.90
35970;DHT22;22448;51.298;6.430;2023-01-05T08:16:23;9.40;99.90
35970;DHT22;22448;51.298;6.430;2023-01-05T08:18:49;9.50;99.90
35970;DHT22;22448;51.298;6.430;2023-01-05T08:21:17;9.50;99.90
35970;DHT22;22448;51.298;6.430;2023-01-05T08:23:44;9.50;99.90
35970;DHT22;22448;51.298;6.430;2023-01-05T08:26:13;9.50;99.90
35970;DHT22;22448;51.298;6.430;2023-01-05T08:28:41;9.50;99.90
35970;DHT22;22448;51.298;6.430;2023-01-05T08:31:26;9.60;99.90
35970;DHT22;22448;51.298;6.430;2023-01-05T08:33:57;9.60;99.90
35970;DHT22;22448;51.298;6.430;2023-01-05T08:36:26;9.60;99.90
35970;DHT22;22448;51.298;6.430;2023-01-05T08:38:53;9.60;99.90
35970;DHT22;22448;51.298;6.430;2023-01-05T08:41:23;9.60;99.90
35970;DHT22;22448;51.298;6.430;2023-01-05T08:43:52;9.70;99.90
35970;DHT22;22448;51.298;6.430;2023-01-05T08:46:21;9.70;99.90
35970;DHT22;22448;51.298;6.430;2023-01-05T08:48:54;9.70;99.90
35970;DHT22;22448;51.298;6.430;2023-01-05T08:51:22;9.80;99.90
35970;DHT22;22448;51.298;6.430;2023-01-05T08:53:49;9.80;99.90
35970;DHT22;22448;51.298;6.430;2023-01-05T08:56:17;9.80;99.90
35970;DHT22;22448;51.298;6.430;2023-01-05T08:58:44;9.80;99.90
35970;DHT22;22448;51.298;6.430;2023-01-05T09:01:13;9.90;99.90
35970;DHT22;22448;51.298;6.430;2023-01-05T09:03:41;9.90;99.90
35970;DHT22;22448;51.298;6.430;2023-01-05T09:06:10;9.90;99.90
35970;DHT22;22448;51.298;6.430;2023-01-05T09:08:39;9.90;99.90
35970;DHT22;22448;51.298;6.430;2023-01-05T09:11:07;9.90;99.90
35970;DHT22;22448;51.298;6.430;2023-01-05T09:13:35;9.90;99.90
35970;DHT22;22448;51.298;6.430;2023-01-05T09:16:08;10.00;99.90
35970;DHT22;22448;51.298;6.430;2023-01-05T09:18:37;10.00;99.90
35970;DHT22;22448;51.298;6.430;2023-01-05T09:21:04;10.00;99.90
35970;DHT22;22448;51.298;6.430;2023-01-05T09:23:32;10.00;99.90
35970;DHT22;22448;51.298;6.430;2023-01-05T09:25:59;10.10;99.90
35970;DHT22;22448;51.298;6.430;2023-01-05T09:28:28;10.10;99.90
35970;DHT22;22448;51.298;6.430;2023-01-05T09:30:55;10.10;99.90
35970;DHT22;22448;51.298;6.430;2023-01-05T09:33:21;10.20;99.90
35970;DHT22;22448;51.298;6.430;2023-01-05T09:35:55;10.20;99.90
35970;DHT22;22448;51.298;6.430;2023-01-05T09:38:23;10.20;99.90
35970;DHT22;22448;51.298;6.430;2023-01-05T09:40:52;10.20;99.90
35970;DHT22;22448;51.298;6.430;2023-01-05T09:43:26;10.30;99.90
35970;DHT22;22448;51.298;6.430;2023-01-05T09:45:55;10.40;99.90
35970;DHT22;22448;51.298;6.430;2023-01-05T09:48:24;10.50;99.90
35970;DHT22;22448;51.298;6.430;2023-01-05T09:50:51;10.50;99.90
35970;DHT22;22448;51.298;6.430;2023-01-05T09:53:27;10.50;99.90
35970;DHT22;22448;51.298;6.430;2023-01-05T09:55:56;10.50;99.90
35970;DHT22;22448;51.298;6.430;2023-01-05T09:58:28;10.40;99.90
35970;DHT22;22448;51.298;6.430;2023-01-05T10:01:08;10.40;99.90
35970;DHT22;22448;51.298;6.430;2023-01-05T10:04:02;10.40;99.90
35970;DHT22;22448;51.298;6.430;2023-01-05T10:06:33;10.40;99.90
35970;DHT22;22448;51.298;6.430;2023-01-05T10:09:03;10.50;99.90
35970;DHT22;22448;51.298;6.430;2023-01-05T10:14:53;10.50;99.90
35970;DHT22;22448;51.298;6.430;2023-01-05T10:17:22;10.50;99.90
35970;DHT22;22448;51.298;6.430;2023-01-05T10:20:14;10.60;99.90
35970;DHT22;22448;51.298;6.430;2023-01-05T10:22:52;10.60;99.90
35970;DHT22;22448;51.298;6.430;2023-01-05T10:25:32;10.70;99.90
35970;DHT22;22448;51.298;6.430;2023-01-05T10:30:59;10.90;99.90
35970;DHT22;22448;51.298;6.430;2023-01-05T10:33:51;11.00;99.90
35970;DHT22;22448;51.298;6.430;2023-01-05T10:42:47;11.10;99.90
35970;DHT22;22448;51.298;6.430;2023-01-05T10:45:18;11.10;99.90
35970;DHT22;22448;51.298;6.430;2023-01-05T10:47:47;11.20;99.90
35970;DHT22;22448;51.298;6.430;2023-01-05T10:50:29;11.30;99.90
35970;DHT22;22448;51.298;6.430;2023-01-05T10:52:58;11.40;99.90
35970;DHT22;22448;51.298;6.430;2023-01-05T10:55:27;11.50;99.90
35970;DHT22;22448;51.298;6.430;2023-01-05T10:57:54;11.50;99.90
35970;DHT22;22448;51.298;6.430;2023-01-05T11:00:40;11.60;99.90
35970;DHT22;22448;51.298;6.430;2023-01-05T11:03:13;11.60;99.90
35970;DHT22;22448;51.298;6.430;2023-01-05T11:05:43;11.60;99.90
35970;DHT22;22448;51.298;6.430;2023-01-05T11:08:34;11.60;99.90
35970;DHT22;22448;51.298;6.430;2023-01-05T11:11:06;11.50;99.90
35970;DHT22;22448;51.298;6.430;2023-01-05T11:13:40;11.50;99.90
35970;DHT22;22448;51.298;6.430;2023-01-05T11:16:26;11.50;99.90
35970;DHT22;22448;51.298;6.430;2023-01-05T11:18:58;11.50;99.90
35970;DHT22;22448;51.298;6.430;2023-01-05T11:21:27;11.40;99.90
35970;DHT22;22448;51.298;6.430;2023-01-05T11:24:26;11.40;99.90
35970;DHT22;22448;51.298;6.430;2023-01-05T11:27:01;11.40;99.90
35970;DHT22;22448;51.298;6.430;2023-01-05T11:29:29;11.40;99.90
35970;DHT22;22448;51.298;6.430;2023-01-05T11:32:05;11.40;99.90
35970;DHT22;22448;51.298;6.430;2023-01-05T11:34:46;11.50;99.90
35970;DHT22;22448;51.298;6.430;2023-01-05T11:40:01;11.50;99.90
35970;DHT22;22448;51.298;6.430;2023-01-05T11:42:33;11.60;99.90
35970;DHT22;22448;51.298;6.430;2023-01-05T11:47:43;11.60;99.90
35970;DHT22;22448;51.298;6.430;2023-01-05T11:50:15;11.60;99.90
35970;DHT22;22448;51.298;6.430;2023-01-05T11:52:49;11.70;99.90
35970;DHT22;22448;51.298;6.430;2023-01-05T11:57:53;11.80;99.90
35970;DHT22;22448;51.298;6.430;2023-01-05T12:00:36;11.70;99.90
35970;DHT22;22448;51.298;6.430;2023-01-05T12:05:57;11.60;99.90
35970;DHT22;22448;51.298;6.430;2023-01-05T12:08:43;11.60;99.90
35970;DHT22;22448;51.298;6.430;2023-01-05T12:11:16;11.60;99.90
35970;DHT22;22448;51.298;6.430;2023-01-05T12:14:22;11.60;99.90
35970;DHT22;22448;51.298;6.430;2023-01-05T12:16:54;11.60;99.90
35970;DHT22;22448;51.298;6.430;2023-01-05T12:22:41;11.70;99.90
35970;DHT22;22448;51.298;6.430;2023-01-05T12:28:01;11.90;99.90
35970;DHT22;22448;51.298;6.430;2023-01-05T12:39:31;12.20;99.90
35970;DHT22;22448;51.298;6.430;2023-01-05T12:42:39;12.10;99.90
35970;DHT22;22448;51.298;6.430;2023-01-05T12:48:40;11.90;99.90
35970;DHT22;22448;51.298;6.430;2023-01-05T12:51:21;11.70;99.90
35970;DHT22;22448;51.298;6.430;2023-01-05T12:54:21;11.60;99.90
35970;DHT22;22448;51.298;6.430;2023-01-05T12:56:51;11.50;99.90
35970;DHT22;22448;51.298;6.430;2023-01-05T12:59:32;11.40;99.90
35970;DHT22;22448;51.298;6.430;2023-01-05T13:04:50;11.20;99.90
35970;DHT22;22448;51.298;6.430;2023-01-05T13:07:29;11.20;99.90
35970;DHT22;22448;51.298;6.430;2023-01-05T13:10:17;11.10;99.90
35970;DHT22;22448;51.298;6.430;2023-01-05T13:12:46;11.20;99.90
35970;DHT22;22448;51.298;6.430;2023-01-05T13:15:21;11.20;99.90
35970;DHT22;22448;51.298;6.430;2023-01-05T13:17:52;11.20;99.90
35970;DHT22;22448;51.298;6.430;2023-01-05T13:20:34;11.30;99.90
35970;DHT22;22448;51.298;6.430;2023-01-05T13:23:26;11.30;99.90
35970;DHT22;22448;51.298;6.430;2023-01-05T13:25:58;11.40;99.90
35970;DHT22;22448;51.298;6.430;2023-01-05T13:28:26;11.40;99.90
35970;DHT22;22448;51.298;6.430;2023-01-05T13:31:01;11.40;99.90
35970;DHT22;22448;51.298;6.430;2023-01-05T13:33:52;11.40;99.90
35970;DHT22;22448;51.298;6.430;2023-01-05T13:42:23;11.20;99.90
35970;DHT22;22448;51.298;6.430;2023-01-05T13:45:19;11.10;99.90
35970;DHT22;22448;51.298;6.430;2023-01-05T13:53:17;11.20;99.90
35970;DHT22;22448;51.298;6.430;2023-01-05T14:00:59;11.30;99.90
35970;DHT22;22448;51.298;6.430;2023-01-05T14:03:30;11.30;99.90
35970;DHT22;22448;51.298;6.430;2023-01-05T14:06:01;11.20;99.90
35970;DHT22;22448;51.298;6.430;2023-01-05T14:08:40;11.20;99.90
35970;DHT22;22448;51.298;6.430;2023-01-05T14:13:47;11.20;99.90
35970;DHT22;22448;51.298;6.430;2023-01-05T14:22:00;11.10;99.90
35970;DHT22;22448;51.298;6.430;2023-01-05T14:27:20;11.10;99.90
35970;DHT22;22448;51.298;6.430;2023-01-05T14:32:33;11.10;99.90
35970;DHT22;22448;51.298;6.430;2023-01-05T14:37:38;11.10;99.90
35970;DHT22;22448;51.298;6.430;2023-01-05T14:42:59;11.00;99.90
35970;DHT22;22448;51.298;6.430;2023-01-05T14:45:30;11.00;99.90
35970;DHT22;22448;51.298;6.430;2023-01-05T14:47:59;10.90;99.90
35970;DHT22;22448;51.298;6.430;2023-01-05T14:50:35;10.90;99.90
35970;DHT22;22448;51.298;6.430;2023-01-05T15:01:16;10.80;99.90
35970;DHT22;22448;51.298;6.430;2023-01-05T15:06:44;10.70;99.90
35970;DHT22;22448;51.298;6.430;2023-01-05T15:09:47;10.60;99.90
35970;DHT22;22448;51.298;6.430;2023-01-05T15:18:42;10.50;99.90
35970;DHT22;22448;51.298;6.430;2023-01-05T15:29:38;10.40;99.90
35970;DHT22;22448;51.298;6.430;2023-01-05T15:32:18;10.40;99.90
35970;DHT22;22448;51.298;6.430;2023-01-05T15:35:19;10.30;99.90
35970;DHT22;22448;51.298;6.430;2023-01-05T15:37:47;10.30;99.90
35970;DHT22;22448;51.298;6.430;2023-01-05T15:42:54;10.30;99.90
35970;DHT22;22448;51.298;6.430;2023-01-05T15:45:25;10.20;99.90
35970;DHT22;22448;51.298;6.430;2023-01-05T15:47:55;10.20;99.90
35970;DHT22;22448;51.298;6.430;2023-01-05T15:50:44;10.10;99.90
35970;DHT22;22448;51.298;6.430;2023-01-05T15:53:26;10.10;99.90
35970;DHT22;22448;51.298;6.430;2023-01-05T15:55:54;10.10;99.90
35970;DHT22;22448;51.298;6.430;2023-01-05T15:58:22;10.10;99.90
35970;DHT22;22448;51.298;6.430;2023-01-05T16:01:07;10.10;99.90
35970;DHT22;22448;51.298;6.430;2023-01-05T16:03:38;10.20;99.90
35970;DHT22;22448;51.298;6.430;2023-01-05T16:06:23;10.20;99.90
35970;DHT22;22448;51.298;6.430;2023-01-05T16:08:52;10.20;99.90
35970;DHT22;22448;51.298;6.430;2023-01-05T16:11:25;10.20;99.90
35970;DHT22;22448;51.298;6.430;2023-01-05T16:13:55;10.10;99.90
35970;DHT22;22448;51.298;6.430;2023-01-05T16:16:37;10.10;99.90
35970;DHT22;22448;51.298;6.430;2023-01-05T16:19:38;10.10;99.90
35970;DHT22;22448;51.298;6.430;2023-01-05T16:22:40;10.10;99.90
35970;DHT22;22448;51.298;6.430;2023-01-05T16:25:20;10.10;99.90
35970;DHT22;22448;51.298;6.430;2023-01-05T16:27:59;10.10;99.90
35970;DHT22;22448;51.298;6.430;2023-01-05T16:30:40;10.00;99.90
35970;DHT22;22448;51.298;6.430;2023-01-05T16:35:46;10.00;99.90
35970;DHT22;22448;51.298;6.430;2023-01-05T16:38:25;10.00;99.90
35970;DHT22;22448;51.298;6.430;2023-01-05T16:43:50;10.00;99.90
35970;DHT22;22448;51.298;6.430;2023-01-05T16:48:53;9.90;99.90
35970;DHT22;22448;51.298;6.430;2023-01-05T16:51:22;9.90;99.90
35970;DHT22;22448;51.298;6.430;2023-01-05T16:53:54;9.80;99.90
35970;DHT22;22448;51.298;6.430;2023-01-05T16:59:01;9.80;99.90
35970;DHT22;22448;51.298;6.430;2023-01-05T17:01:36;9.70;99.90
35970;DHT22;22448;51.298;6.430;2023-01-05T17:04:14;9.70;99.90
35970;DHT22;22448;51.298;6.430;2023-01-05T17:06:48;9.70;99.90
35970;DHT22;22448;51.298;6.430;2023-01-05T17:09:18;9.60;99.90
35970;DHT22;22448;51.298;6.430;2023-01-05T17:11:46;9.60;99.90
35970;DHT22;22448;51.298;6.430;2023-01-05T17:14:13;9.60;99.90
35970;DHT22;22448;51.298;6.430;2023-01-05T17:16:41;9.50;99.90
35970;DHT22;22448;51.298;6.430;2023-01-05T17:19:16;9.50;99.90
35970;DHT22;22448;51.298;6.430;2023-01-05T17:21:54;9.50;99.90
35970;DHT22;22448;51.298;6.430;2023-01-05T17:24:22;9.50;99.90
35970;DHT22;22448;51.298;6.430;2023-01-05T17:26:49;9.50;99.90
35970;DHT22;22448;51.298;6.430;2023-01-05T17:29:24;9.50;99.90
35970;DHT22;22448;51.298;6.430;2023-01-05T17:31:52;9.50;99.90
35970;DHT22;22448;51.298;6.430;2023-01-05T17:34:19;9.50;99.90
35970;DHT22;22448;51.298;6.430;2023-01-05T17:36:49;9.50;99.90
35970;DHT22;22448;51.298;6.430;2023-01-05T17:39:17;9.50;99.90
35970;DHT22;22448;51.298;6.430;2023-01-05T17:41:44;9.40;99.90
35970;DHT22;22448;51.298;6.430;2023-01-05T17:44:12;9.50;99.90
35970;DHT22;22448;51.298;6.430;2023-01-05T17:46:42;9.40;99.90
35970;DHT22;22448;51.298;6.430;2023-01-05T17:49:15;9.40;99.90
35970;DHT22;22448;51.298;6.430;2023-01-05T17:51:42;9.40;99.90
35970;DHT22;22448;51.298;6.430;2023-01-05T17:54:09;9.40;99.90
35970;DHT22;22448;51.298;6.430;2023-01-05T17:56:36;9.40;99.90
35970;DHT22;22448;51.298;6.430;2023-01-05T17:59:03;9.40;99.90
35970;DHT22;22448;51.298;6.430;2023-01-05T18:01:31;9.40;99.90
35970;DHT22;22448;51.298;6.430;2023-01-05T18:04:01;9.40;99.90
35970;DHT22;22448;51.298;6.430;2023-01-05T18:06:28;9.40;99.90
35970;DHT22;22448;51.298;6.430;2023-01-05T18:08:56;9.40;99.90
35970;DHT22;22448;51.298;6.430;2023-01-05T18:11:23;9.40;99.90
35970;DHT22;22448;51.298;6.430;2023-01-05T18:13:50;9.40;99.90
35970;DHT22;22448;51.298;6.430;2023-01-05T18:16:16;9.40;99.90
35970;DHT22;22448;51.298;6.430;2023-01-05T18:18:43;9.40;99.90
35970;DHT22;22448;51.298;6.430;2023-01-05T18:21:10;9.40;99.90
35970;DHT22;22448;51.298;6.430;2023-01-05T18:23:37;9.50;99.90
35970;DHT22;22448;51.298;6.430;2023-01-05T18:26:07;9.50;99.90
35970;DHT22;22448;51.298;6.430;2023-01-05T18:28:35;9.50;99.90
35970;DHT22;22448;51.298;6.430;2023-01-05T18:31:13;9.50;99.90
35970;DHT22;22448;51.298;6.430;2023-01-05T18:33:41;9.50;99.90